首页
METAR-TAF:

METAR-TAF

机场 :

梅肯, 喬治亞, 美国

纬度: 32-41-16N, 经度: 083-39-16W, 海拔: 107米

当前天气观测

该预报发布于38分钟前的19:53 UTC
风速3节,风向
温度 18°C
湿度 49%
气压 1014 hPa
能見度: 16.1公里
阴天层高于3900英尺

METAR: KMCN 171953Z 35003KT 10SM OVC039 18/07 A2993 RMK AO2 SLP131 T01780067

时间: 15:31 (20:31 UTC)

预报

该预报发布于38分钟前的19:53 UTC
预报有效从17日的 20点(UTC)到 18日的 18点(UTC)
风速节,风向
能見度: 10公里
多云层高于3500英尺
从 18日的 0900点(UTC)
风速节,风向
能見度: 10公里
少量云层高于900英尺
多云层高于2500英尺
从 18日的 1200点(UTC)
风速节,风向
能見度: 10公里
少量云层高于900英尺
多云层高于1500英尺
从 18日的 1400点(UTC)
风速节,风向
能見度: 10公里
少量云层高于900英尺
散云层高于1800英尺
从 18日的 1700点(UTC)
风速7节,风向西
能見度: 10公里
少量云层高于5000英尺

TAF: KMCN 171953Z 1720/1818 00000KT P6SM BKN035 FM180900 00000KT P6SM FEW009 BKN025 FM181200 00000KT P6SM FEW009 BKN015 FM181400 00000KT P6SM FEW009 SCT018 FM181700 26007KT P6SM FEW050

超过4000个机场的气象观测和天气预报(METAR&TAF报告)。

可查询的气象台以黄色和红色小点在地图上表示。

将鼠标移到小点上方,可查看气象台名称。

然后点击查看天气观测和预报。

如需切换地图:点击带黑十字的绿色按钮放大地图;点击带横线的绿色按钮缩小地图;或者点击绿色箭头查看邻近地区的地图。


METAR-TAF: